Terminal Aerodrome Forecast
Issued by NWS

Home | Current Version | Previous Version | Text Only | Print | Product List | Glossary On
Versions: 1 2 3 4 5 6 7 8 9 10 11 12 13 14 15 16 17 18 19 20 21 22 23 24
000
FTUS41 KOKX 271100
TAFHPN
TAF
KHPN 271132Z 2712/2812 36022G32KT 1SM -SN BLSN OVC010
      TEMPO 2712/2715 1/2SM SN BLSN VV006
     FM271500 34022G32KT 1SM -SN BLSN OVC015
     FM272200 33019G30KT 2SM -SN BLSN OVC020
     FM280200 33015G25KT 2SM -SHSN OVC035
     FM280500 32013G21KT P6SM SCT040 SCT100
      AMD NOT SKED=

USA.gov is the U.S. government's official web portal to all federal, state and local government web resources and services.